Time;durP1;ratioP1;P1;durP2;ratioP2;P2;SDS_P1;SDS_P2;PMS_P1;PMS_P2;Temp;Humidity;BMP_temperature;BMP_pressure;BME280_temperature;BME280_humidity;BME280_pressure;Samples;Min_cycle;Max_cycle;Signal;HPM_P1;HPM_P2
2021/05/21 00:01:58;;;;;;;9.97;7.67;;;;;;;;;;768510;180;918931;-70
2021/05/21 00:04:26;;;;;;;8.13;6.97;;;;;;;;;;779492;180;918616;-70
2021/05/21 00:06:49;;;;;;;8.27;7.35;;;;;;;;;;767187;179;919369;-70
2021/05/21 00:09:15;;;;;;;9.00;7.70;;;;;;;;;;765401;180;919656;-70
2021/05/21 00:11:41;;;;;;;8.50;7.60;;;;;;;;;;779258;180;919323;-70
2021/05/21 00:14:07;;;;;;;191.43;20.00;;;;;;;;;;774320;181;919162;-70
2021/05/21 00:16:33;;;;;;;21.57;7.20;;;;;;;;;;772005;180;919500;-70
2021/05/21 00:18:59;;;;;;;14.27;6.20;;;;;;;;;;775802;180;917324;-70
2021/05/21 00:21:24;;;;;;;8.00;6.23;;;;;;;;;;783139;180;618254;-71
2021/05/21 00:23:50;;;;;;;40.53;8.47;;;;;;;;;;769078;180;624745;-70
2021/05/21 00:26:16;;;;;;;11.57;7.33;;;;;;;;;;773572;179;918914;-69
2021/05/21 00:28:42;;;;;;;7.90;7.10;;;;;;;;;;778821;178;896930;-70
2021/05/21 00:31:08;;;;;;;8.07;6.23;;;;;;;;;;772978;180;919599;-70
2021/05/21 00:33:34;;;;;;;8.45;7.00;;;;;;;;;;772234;177;974062;-69
2021/05/21 00:36:00;;;;;;;9.70;6.33;;;;;;;;;;779878;179;919484;-69
2021/05/21 00:38:26;;;;;;;9.23;7.67;;;;;;;;;;774564;180;918435;-69
2021/05/21 00:40:52;;;;;;;8.80;6.23;;;;;;;;;;775685;180;919288;-69
2021/05/21 00:43:18;;;;;;;8.50;6.73;;;;;;;;;;773662;178;920128;-68
2021/05/21 00:45:44;;;;;;;8.60;6.40;;;;;;;;;;761815;181;918837;-69
2021/05/21 00:48:10;;;;;;;99.67;14.77;;;;;;;;;;768391;179;919688;-69
2021/05/21 00:50:35;;;;;;;68.80;11.23;;;;;;;;;;773748;178;919490;-69
2021/05/21 00:53:01;;;;;;;103.50;15.77;;;;;;;;;;783392;177;617655;-70
2021/05/21 00:55:27;;;;;;;7.70;6.10;;;;;;;;;;780786;179;620187;-69
2021/05/21 00:57:53;;;;;;;9.98;6.97;;;;;;;;;;776986;178;919550;-71
2021/05/21 01:00:19;;;;;;;8.07;6.07;;;;;;;;;;776028;177;918097;-68
2021/05/21 01:02:45;;;;;;;62.13;8.60;;;;;;;;;;776650;177;918202;-67
2021/05/21 01:05:11;;;;;;;53.33;9.20;;;;;;;;;;770473;178;947340;-69
2021/05/21 01:07:37;;;;;;;50.77;11.43;;;;;;;;;;779380;180;636772;-69
2021/05/21 01:10:03;;;;;;;9.40;6.10;;;;;;;;;;770476;181;919419;-70
2021/05/21 01:12:29;;;;;;;6.65;5.30;;;;;;;;;;778018;178;919336;-69
2021/05/21 01:14:54;;;;;;;7.03;5.60;;;;;;;;;;776305;178;623458;-69
2021/05/21 01:17:20;;;;;;;8.30;5.80;;;;;;;;;;779567;180;627653;-69
2021/05/21 01:19:46;;;;;;;8.00;5.80;;;;;;;;;;778165;180;624055;-69
2021/05/21 01:22:12;;;;;;;6.30;4.83;;;;;;;;;;774834;179;918127;-69
2021/05/21 01:24:38;;;;;;;6.43;5.03;;;;;;;;;;778778;180;918598;-69
2021/05/21 01:27:05;;;;;;;6.80;5.10;;;;;;;;;;775800;177;918965;-69
2021/05/21 01:29:30;;;;;;;7.20;5.90;;;;;;;;;;771213;179;919425;-68
2021/05/21 01:31:56;;;;;;;9.97;5.23;;;;;;;;;;765137;181;919221;-69
2021/05/21 01:34:21;;;;;;;7.53;5.77;;;;;;;;;;775456;179;919818;-70
2021/05/21 01:36:47;;;;;;;7.20;5.60;;;;;;;;;;776418;179;623902;-69
2021/05/21 01:39:13;;;;;;;8.47;5.83;;;;;;;;;;777812;177;630823;-69
2021/05/21 01:41:39;;;;;;;6.60;4.90;;;;;;;;;;768168;183;627669;-69
2021/05/21 01:44:05;;;;;;;9.40;6.20;;;;;;;;;;767722;178;623018;-69
2021/05/21 01:46:31;;;;;;;26.90;7.93;;;;;;;;;;777066;180;617077;-70
2021/05/21 01:48:57;;;;;;;6.97;5.60;;;;;;;;;;774637;177;630462;-69
2021/05/21 01:51:23;;;;;;;6.47;5.40;;;;;;;;;;767658;180;920746;-69
2021/05/21 01:53:48;;;;;;;8.03;5.80;;;;;;;;;;773404;180;919721;-69
2021/05/21 01:56:14;;;;;;;6.83;5.33;;;;;;;;;;776137;180;913964;-69
2021/05/21 01:58:40;;;;;;;7.13;5.23;;;;;;;;;;772677;179;920505;-68
2021/05/21 02:01:06;;;;;;;6.47;5.20;;;;;;;;;;768462;180;915774;-70
2021/05/21 02:03:33;;;;;;;8.25;6.30;;;;;;;;;;777997;180;918680;-69
2021/05/21 02:05:58;;;;;;;5.77;4.80;;;;;;;;;;771480;180;918918;-69
2021/05/21 02:08:24;;;;;;;7.57;5.80;;;;;;;;;;762992;181;919405;-69
2021/05/21 02:10:50;;;;;;;10.90;6.10;;;;;;;;;;774668;180;919240;-70
2021/05/21 02:13:16;;;;;;;8.40;6.23;;;;;;;;;;772924;181;919001;-69
2021/05/21 02:15:42;;;;;;;7.60;5.50;;;;;;;;;;773130;178;919581;-70
2021/05/21 02:18:08;;;;;;;7.50;5.60;;;;;;;;;;770060;180;1120984;-69
2021/05/21 02:20:34;;;;;;;7.70;5.83;;;;;;;;;;780312;180;919580;-69
2021/05/21 02:22:59;;;;;;;13.10;6.53;;;;;;;;;;772756;180;924561;-69
2021/05/21 02:25:25;;;;;;;9.40;6.60;;;;;;;;;;773009;180;910494;-69
2021/05/21 02:27:51;;;;;;;7.20;5.60;;;;;;;;;;777990;180;918980;-70
2021/05/21 02:30:17;;;;;;;9.20;6.53;;;;;;;;;;772762;180;947780;-69
2021/05/21 02:32:43;;;;;;;8.87;6.60;;;;;;;;;;773055;180;921137;-69
2021/05/21 02:35:09;;;;;;;7.77;6.07;;;;;;;;;;773529;180;919751;-69
2021/05/21 02:37:35;;;;;;;9.80;6.53;;;;;;;;;;779962;180;919321;-69
2021/05/21 02:40:01;;;;;;;10.27;6.50;;;;;;;;;;770960;180;917994;-69
2021/05/21 02:42:26;;;;;;;8.57;6.90;;;;;;;;;;773104;178;919305;-70
2021/05/21 02:44:52;;;;;;;7.93;5.60;;;;;;;;;;778651;180;919647;-69
2021/05/21 02:47:18;;;;;;;8.30;6.50;;;;;;;;;;776630;179;919400;-70
2021/05/21 02:49:44;;;;;;;13.00;6.20;;;;;;;;;;775571;177;947595;-69
2021/05/21 02:52:10;;;;;;;10.27;5.87;;;;;;;;;;780622;177;918823;-69
2021/05/21 02:54:36;;;;;;;9.10;6.43;;;;;;;;;;769500;180;917259;-69
2021/05/21 02:57:01;;;;;;;9.75;6.82;;;;;;;;;;770142;177;911025;-70
2021/05/21 02:59:27;;;;;;;15.37;6.50;;;;;;;;;;778357;180;911295;-69
2021/05/21 03:01:53;;;;;;;21.80;9.00;;;;;;;;;;772147;180;918168;-71
2021/05/21 03:04:19;;;;;;;30.03;9.23;;;;;;;;;;775962;178;918998;-71
2021/05/21 03:06:45;;;;;;;23.35;9.60;;;;;;;;;;773600;180;919655;-70
2021/05/21 03:09:11;;;;;;;27.93;10.97;;;;;;;;;;779587;180;919240;-71
2021/05/21 03:11:36;;;;;;;55.50;10.77;;;;;;;;;;773415;180;919663;-70
2021/05/21 03:14:02;;;;;;;29.10;7.07;;;;;;;;;;773594;180;918696;-71
2021/05/21 03:16:28;;;;;;;25.53;7.53;;;;;;;;;;778178;180;1022886;-71
2021/05/21 03:18:54;;;;;;;38.73;9.80;;;;;;;;;;775667;180;635129;-71
2021/05/21 03:21:20;;;;;;;11.97;6.50;;;;;;;;;;775965;180;615768;-72
2021/05/21 03:23:46;;;;;;;11.80;8.60;;;;;;;;;;781146;180;634186;-72
2021/05/21 03:26:12;;;;;;;21.17;7.27;;;;;;;;;;771235;177;919559;-71
2021/05/21 03:28:40;;;;;;;24.33;8.43;;;;;;;;;;769081;180;919754;-71
2021/05/21 03:31:03;;;;;;;12.90;7.23;;;;;;;;;;764600;180;2147180;-69
2021/05/21 03:33:29;;;;;;;14.27;7.67;;;;;;;;;;777172;180;918948;-71
2021/05/21 03:35:55;;;;;;;47.47;9.63;;;;;;;;;;770718;180;919702;-71
2021/05/21 03:38:21;;;;;;;19.47;7.90;;;;;;;;;;773539;179;919494;-70
2021/05/21 03:40:47;;;;;;;20.97;8.20;;;;;;;;;;778847;180;919576;-71
2021/05/21 03:43:12;;;;;;;13.70;8.50;;;;;;;;;;768415;180;919431;-71
2021/05/21 03:45:38;;;;;;;22.43;8.00;;;;;;;;;;770849;178;919117;-71
2021/05/21 03:48:05;;;;;;;16.03;7.77;;;;;;;;;;779450;180;918914;-71
2021/05/21 03:50:30;;;;;;;29.33;9.70;;;;;;;;;;775181;180;919448;-71
2021/05/21 03:52:56;;;;;;;15.80;8.30;;;;;;;;;;771882;180;1020561;-71
2021/05/21 03:55:22;;;;;;;11.77;7.63;;;;;;;;;;772071;180;921518;-70
2021/05/21 03:57:48;;;;;;;18.70;9.10;;;;;;;;;;775025;178;919360;-71
2021/05/21 04:00:16;;;;;;;13.73;8.93;;;;;;;;;;777570;180;919181;-70
2021/05/21 04:02:42;;;;;;;15.00;9.20;;;;;;;;;;774058;180;919221;-71
2021/05/21 04:05:08;;;;;;;11.70;7.20;;;;;;;;;;778918;178;919785;-71
2021/05/21 04:07:34;;;;;;;16.87;9.40;;;;;;;;;;779310;179;624666;-71
2021/05/21 04:10:00;;;;;;;15.53;8.60;;;;;;;;;;774503;180;919269;-71
2021/05/21 04:12:27;;;;;;;14.50;9.27;;;;;;;;;;779427;180;916106;-71
2021/05/21 04:14:52;;;;;;;13.83;8.73;;;;;;;;;;774095;180;920306;-71
2021/05/21 04:17:19;;;;;;;14.70;8.57;;;;;;;;;;769988;178;919742;-71
2021/05/21 04:19:43;;;;;;;13.33;9.17;;;;;;;;;;773835;180;917816;-70
2021/05/21 04:22:09;;;;;;;13.80;8.90;;;;;;;;;;774852;180;628438;-71
2021/05/21 04:24:35;;;;;;;15.77;9.57;;;;;;;;;;777266;180;627924;-71
2021/05/21 04:27:01;;;;;;;12.50;9.80;;;;;;;;;;770419;180;919518;-70
2021/05/21 04:29:27;;;;;;;17.93;10.13;;;;;;;;;;775547;180;919281;-71
2021/05/21 04:31:52;;;;;;;21.27;10.85;;;;;;;;;;773276;181;920318;-70
2021/05/21 04:34:18;;;;;;;27.33;13.00;;;;;;;;;;773505;180;919568;-71
2021/05/21 04:36:44;;;;;;;22.20;14.00;;;;;;;;;;777962;180;919045;-72
2021/05/21 04:39:10;;;;;;;25.02;14.52;;;;;;;;;;771253;180;919219;-71
2021/05/21 04:41:36;;;;;;;27.50;14.67;;;;;;;;;;770852;181;920285;-71
2021/05/21 04:44:02;;;;;;;29.23;17.40;;;;;;;;;;776681;179;1018230;-71
2021/05/21 04:46:28;;;;;;;33.47;17.40;;;;;;;;;;775670;180;919119;-72
2021/05/21 04:48:53;;;;;;;32.55;18.90;;;;;;;;;;774177;178;918956;-72
2021/05/21 04:51:19;;;;;;;36.70;19.83;;;;;;;;;;772263;180;918749;-69
2021/05/21 04:53:45;;;;;;;38.77;19.73;;;;;;;;;;776837;180;919727;-71
2021/05/21 04:56:11;;;;;;;38.37;20.37;;;;;;;;;;773531;180;918690;-71
2021/05/21 04:58:37;;;;;;;37.80;21.60;;;;;;;;;;770652;180;920078;-71
2021/05/21 05:01:03;;;;;;;40.83;23.50;;;;;;;;;;776761;180;919005;-70
2021/05/21 05:03:28;;;;;;;35.40;21.30;;;;;;;;;;772308;180;919218;-71
2021/05/21 05:05:54;;;;;;;37.63;21.90;;;;;;;;;;769721;180;919601;-71
2021/05/21 05:08:20;;;;;;;33.97;20.70;;;;;;;;;;779229;180;919768;-71
2021/05/21 05:10:48;;;;;;;36.70;20.73;;;;;;;;;;777059;177;854259;-71
2021/05/21 05:13:12;;;;;;;33.10;21.70;;;;;;;;;;776531;179;633296;-71
2021/05/21 05:15:38;;;;;;;38.57;22.37;;;;;;;;;;780556;180;634132;-70
2021/05/21 05:18:05;;;;;;;37.50;23.07;;;;;;;;;;775531;180;622758;-70
2021/05/21 05:20:30;;;;;;;32.50;20.97;;;;;;;;;;776344;180;635102;-71
2021/05/21 05:22:56;;;;;;;33.25;22.00;;;;;;;;;;775876;178;1018412;-70
2021/05/21 05:25:22;;;;;;;35.93;23.73;;;;;;;;;;779610;180;918729;-70
2021/05/21 05:27:47;;;;;;;34.10;22.17;;;;;;;;;;774658;180;919012;-70
2021/05/21 05:30:14;;;;;;;33.60;22.60;;;;;;;;;;773000;181;919719;-70
2021/05/21 05:32:40;;;;;;;32.07;21.90;;;;;;;;;;782138;180;918947;-70
2021/05/21 05:35:06;;;;;;;33.20;22.87;;;;;;;;;;774833;180;919204;-70
2021/05/21 05:37:32;;;;;;;29.80;22.10;;;;;;;;;;773680;179;919448;-70
2021/05/21 05:39:58;;;;;;;28.90;19.07;;;;;;;;;;761959;182;940698;-71
2021/05/21 05:42:23;;;;;;;28.33;18.37;;;;;;;;;;772865;180;918305;-70
2021/05/21 05:44:49;;;;;;;21.50;16.83;;;;;;;;;;773564;178;918490;-70
2021/05/21 05:47:15;;;;;;;19.77;15.20;;;;;;;;;;771234;178;1021620;-70
2021/05/21 05:49:41;;;;;;;19.80;14.80;;;;;;;;;;778609;180;918611;-71
2021/05/21 05:52:08;;;;;;;19.90;14.60;;;;;;;;;;770025;180;919366;-71
2021/05/21 05:54:33;;;;;;;18.70;14.70;;;;;;;;;;772687;180;918748;-70
2021/05/21 05:56:59;;;;;;;19.50;15.10;;;;;;;;;;778453;178;939920;-70
2021/05/21 05:59:26;;;;;;;15.80;12.60;;;;;;;;;;774283;179;919418;-71
2021/05/21 06:01:50;;;;;;;18.30;14.13;;;;;;;;;;769738;180;918912;-71
2021/05/21 06:04:16;;;;;;;15.03;12.83;;;;;;;;;;776276;181;920273;-71
2021/05/21 06:06:42;;;;;;;14.70;13.07;;;;;;;;;;771188;179;919462;-70
2021/05/21 06:09:09;;;;;;;16.27;13.07;;;;;;;;;;770099;180;1179662;-69
2021/05/21 06:11:34;;;;;;;16.93;11.40;;;;;;;;;;774089;180;919150;-70
2021/05/21 06:14:00;;;;;;;20.90;11.00;;;;;;;;;;771446;180;919284;-70
2021/05/21 06:16:25;;;;;;;16.10;10.10;;;;;;;;;;774511;180;918541;-69
2021/05/21 06:18:51;;;;;;;12.50;10.63;;;;;;;;;;771146;180;1019938;-69
2021/05/21 06:21:17;;;;;;;13.33;9.10;;;;;;;;;;778719;179;919766;-69
2021/05/21 06:23:44;;;;;;;13.13;10.60;;;;;;;;;;772085;180;941918;-71
2021/05/21 06:26:15;;;;;;;12.10;9.87;;;;;;;;;;773407;177;919269;-69
2021/05/21 06:28:36;;;;;;;10.10;9.00;;;;;;;;;;780666;180;919139;-69
2021/05/21 06:31:02;;;;;;;9.77;8.77;;;;;;;;;;778097;180;918835;-69
2021/05/21 06:33:28;;;;;;;10.70;7.57;;;;;;;;;;777027;180;816127;-68
2021/05/21 06:35:54;;;;;;;10.07;7.80;;;;;;;;;;778492;180;919349;-68
2021/05/21 06:38:20;;;;;;;8.03;6.83;;;;;;;;;;762147;181;922871;-68
2021/05/21 06:40:46;;;;;;;9.70;6.70;;;;;;;;;;754910;181;919416;-68
2021/05/21 06:43:13;;;;;;;7.00;5.93;;;;;;;;;;770438;180;919149;-69
2021/05/21 06:45:39;;;;;;;11.03;5.50;;;;;;;;;;779835;179;919180;-69
2021/05/21 06:48:06;;;;;;;6.83;6.10;;;;;;;;;;771219;180;919167;-69
2021/05/21 06:50:31;;;;;;;9.23;6.17;;;;;;;;;;773663;177;1003023;-69
2021/05/21 06:52:57;;;;;;;9.40;6.80;;;;;;;;;;781774;177;919959;-70
2021/05/21 06:55:23;;;;;;;12.70;5.83;;;;;;;;;;776298;177;878164;-69
2021/05/21 06:57:49;;;;;;;7.97;6.27;;;;;;;;;;772304;177;1022440;-69
2021/05/21 07:00:15;;;;;;;6.40;5.80;;;;;;;;;;774937;180;915655;-69
2021/05/21 07:02:41;;;;;;;8.97;6.07;;;;;;;;;;775261;180;930734;-68
2021/05/21 07:05:07;;;;;;;12.60;5.90;;;;;;;;;;768407;180;988196;-68
2021/05/21 07:07:33;;;;;;;9.93;5.00;;;;;;;;;;771256;178;1015483;-70
2021/05/21 07:10:00;;;;;;;7.27;5.23;;;;;;;;;;781815;177;914925;-69
2021/05/21 07:12:25;;;;;;;12.37;4.73;;;;;;;;;;772876;178;913550;-70
2021/05/21 07:14:51;;;;;;;10.70;4.87;;;;;;;;;;771389;180;923157;-69
2021/05/21 07:17:16;;;;;;;5.03;4.07;;;;;;;;;;775595;180;1014519;-69
2021/05/21 07:19:42;;;;;;;9.40;4.10;;;;;;;;;;775735;181;635596;-69
2021/05/21 07:22:08;;;;;;;5.87;3.53;;;;;;;;;;777835;177;628429;-70
2021/05/21 07:24:34;;;;;;;4.57;3.83;;;;;;;;;;780900;177;864586;-69
2021/05/21 07:27:00;;;;;;;9.13;3.90;;;;;;;;;;773911;180;920507;-70
2021/05/21 07:29:26;;;;;;;6.17;3.13;;;;;;;;;;769598;180;926198;-69
2021/05/21 07:31:52;;;;;;;9.60;3.67;;;;;;;;;;772538;179;931481;-69
2021/05/21 07:34:17;;;;;;;3.10;2.60;;;;;;;;;;778467;179;917881;-70
2021/05/21 07:36:43;;;;;;;5.43;2.80;;;;;;;;;;775647;177;929137;-69
2021/05/21 07:39:09;;;;;;;4.70;2.70;;;;;;;;;;775410;177;913774;-69
2021/05/21 07:41:35;;;;;;;5.67;2.67;;;;;;;;;;778429;180;1017025;-69
2021/05/21 07:44:01;;;;;;;3.73;2.20;;;;;;;;;;772943;177;915449;-69
2021/05/21 07:46:27;;;;;;;3.37;2.40;;;;;;;;;;772177;181;919301;-69
2021/05/21 07:48:53;;;;;;;3.07;2.30;;;;;;;;;;779592;178;914137;-68
2021/05/21 07:51:18;;;;;;;2.27;1.80;;;;;;;;;;776060;178;919024;-71
2021/05/21 07:53:44;;;;;;;3.20;2.20;;;;;;;;;;773938;180;919072;-69
2021/05/21 07:56:10;;;;;;;3.60;2.20;;;;;;;;;;779768;179;918827;-68
2021/05/21 07:58:36;;;;;;;3.97;2.20;;;;;;;;;;776869;177;908733;-68
2021/05/21 08:01:02;;;;;;;4.07;2.30;;;;;;;;;;774405;180;919225;-69
2021/05/21 08:03:28;;;;;;;2.40;1.70;;;;;;;;;;770298;180;919060;-68
2021/05/21 08:05:54;;;;;;;4.65;2.35;;;;;;;;;;781585;177;919067;-70
2021/05/21 08:08:21;;;;;;;4.63;2.13;;;;;;;;;;773306;180;934707;-68
2021/05/21 08:10:46;;;;;;;3.23;1.87;;;;;;;;;;772054;181;921017;-69
2021/05/21 08:13:12;;;;;;;2.63;1.70;;;;;;;;;;774507;180;931588;-68
2021/05/21 08:15:38;;;;;;;2.80;1.70;;;;;;;;;;772235;179;918621;-68
2021/05/21 08:18:04;;;;;;;3.10;2.07;;;;;;;;;;769699;181;921718;-69
2021/05/21 08:20:30;;;;;;;3.00;1.53;;;;;;;;;;774142;180;1178524;-68
2021/05/21 08:22:56;;;;;;;3.20;1.40;;;;;;;;;;774329;180;921709;-68
2021/05/21 08:25:22;;;;;;;3.17;1.50;;;;;;;;;;771336;180;915922;-68
2021/05/21 08:27:47;;;;;;;2.10;1.20;;;;;;;;;;772703;180;920112;-67
2021/05/21 08:30:14;;;;;;;2.13;1.20;;;;;;;;;;775466;180;919589;-68
2021/05/21 08:32:39;;;;;;;2.23;1.27;;;;;;;;;;773454;178;915336;-69
2021/05/21 08:35:06;;;;;;;2.30;1.33;;;;;;;;;;769600;180;1018642;-68
2021/05/21 08:37:31;;;;;;;2.17;1.30;;;;;;;;;;778850;180;920566;-69
2021/05/21 08:39:57;;;;;;;2.33;1.53;;;;;;;;;;772918;178;952584;-72
2021/05/21 08:42:23;;;;;;;2.70;1.40;;;;;;;;;;775720;178;916545;-70
2021/05/21 08:44:49;;;;;;;2.37;1.33;;;;;;;;;;778877;179;914869;-68
2021/05/21 08:47:15;;;;;;;6.30;1.60;;;;;;;;;;776280;179;916786;-68
2021/05/21 08:49:41;;;;;;;2.97;1.57;;;;;;;;;;762609;178;915032;-70
2021/05/21 08:52:06;;;;;;;3.30;1.50;;;;;;;;;;779659;180;916735;-69
2021/05/21 08:54:36;;;;;;;2.87;1.40;;;;;;;;;;777625;180;914790;-68
2021/05/21 08:57:00;;;;;;;1.90;1.20;;;;;;;;;;773168;180;919970;-67
2021/05/21 08:59:26;;;;;;;3.60;1.63;;;;;;;;;;769233;180;918479;-67
2021/05/21 09:01:52;;;;;;;3.13;1.67;;;;;;;;;;780615;178;946559;-69
2021/05/21 09:04:18;;;;;;;3.50;1.70;;;;;;;;;;773637;177;918579;-68
2021/05/21 09:06:44;;;;;;;2.20;1.20;;;;;;;;;;759849;182;919245;-68
2021/05/21 09:09:11;;;;;;;2.93;1.57;;;;;;;;;;776544;180;919334;-68
2021/05/21 09:11:38;;;;;;;3.37;1.60;;;;;;;;;;778290;178;881421;-68
2021/05/21 09:14:03;;;;;;;4.80;1.83;;;;;;;;;;774224;177;919106;-67
2021/05/21 09:16:29;;;;;;;3.40;1.70;;;;;;;;;;779579;178;918857;-71
2021/05/21 09:18:59;;;;;;;2.23;1.50;;;;;;;;;;769414;180;919949;-71
2021/05/21 09:21:24;;;;;;;3.70;1.83;;;;;;;;;;776752;177;856531;-69
2021/05/21 09:23:56;;;;;;;3.43;1.90;;;;;;;;;;769194;180;626197;-70
2021/05/21 09:26:23;;;;;;;3.17;1.50;;;;;;;;;;775993;180;918580;-69
2021/05/21 09:28:48;;;;;;;3.23;2.27;;;;;;;;;;772949;179;919457;-70
2021/05/21 09:31:14;;;;;;;4.20;1.60;;;;;;;;;;771497;180;918815;-70
2021/05/21 09:33:40;;;;;;;3.30;1.98;;;;;;;;;;776242;180;918348;-69
2021/05/21 09:36:06;;;;;;;5.33;2.13;;;;;;;;;;776644;180;909487;-67
2021/05/21 09:38:32;;;;;;;3.97;2.10;;;;;;;;;;772715;180;919264;-67
2021/05/21 09:40:57;;;;;;;3.87;2.23;;;;;;;;;;772855;181;919841;-68
2021/05/21 09:43:23;;;;;;;5.25;1.80;;;;;;;;;;778543;180;921971;-69
2021/05/21 09:45:49;;;;;;;2.80;1.60;;;;;;;;;;770577;179;1022171;-66
2021/05/21 09:48:18;;;;;;;2.23;1.33;;;;;;;;;;768778;180;1021476;-67
2021/05/21 09:50:41;;;;;;;7.00;1.87;;;;;;;;;;778381;180;919473;-67
2021/05/21 09:53:22;;;;;;;2.77;1.40;;;;;;;;;;774053;180;919245;-68
2021/05/21 09:55:50;;;;;;;5.77;1.50;;;;;;;;;;775470;179;919168;-69
2021/05/21 09:58:22;;;;;;;2.43;1.47;;;;;;;;;;776753;180;919859;-69
2021/05/21 10:00:53;;;;;;;7.50;1.90;;;;;;;;;;768820;179;918094;-68
2021/05/21 10:03:19;;;;;;;3.60;1.77;;;;;;;;;;780054;180;625962;-69
2021/05/21 10:05:45;;;;;;;11.17;1.87;;;;;;;;;;770120;177;919365;-68
2021/05/21 10:08:11;;;;;;;4.93;1.33;;;;;;;;;;769124;181;918637;-70
2021/05/21 10:10:37;;;;;;;2.50;1.33;;;;;;;;;;780341;180;817164;-71
2021/05/21 10:13:03;;;;;;;3.30;1.63;;;;;;;;;;770065;180;919850;-70
2021/05/21 10:15:28;;;;;;;4.20;1.40;;;;;;;;;;774874;180;919692;-69
2021/05/21 10:17:54;;;;;;;3.20;1.50;;;;;;;;;;769162;180;919455;-69
2021/05/21 10:20:22;;;;;;;3.90;1.20;;;;;;;;;;779929;177;919802;-70
2021/05/21 10:22:46;;;;;;;2.93;1.70;;;;;;;;;;774245;177;919198;-68
2021/05/21 10:25:13;;;;;;;2.00;1.30;;;;;;;;;;769744;180;1124042;-71
2021/05/21 10:27:39;;;;;;;3.23;1.30;;;;;;;;;;777629;180;933011;-70
2021/05/21 10:30:05;;;;;;;2.40;1.50;;;;;;;;;;772709;177;918573;-68
2021/05/21 10:32:31;;;;;;;2.07;1.37;;;;;;;;;;770653;180;918411;-70
2021/05/21 10:34:57;;;;;;;4.67;1.40;;;;;;;;;;776844;181;919171;-68
2021/05/21 10:37:24;;;;;;;2.20;1.20;;;;;;;;;;774612;180;871783;-69
2021/05/21 10:39:55;;;;;;;3.80;1.10;;;;;;;;;;771077;180;869468;-70
2021/05/21 10:42:21;;;;;;;9.33;1.87;;;;;;;;;;773438;180;920837;-69
2021/05/21 10:44:47;;;;;;;2.00;1.10;;;;;;;;;;776906;180;919408;-68
2021/05/21 10:47:19;;;;;;;1.80;1.00;;;;;;;;;;770033;180;1434743;-69
2021/05/21 10:50:04;;;;;;;2.60;1.10;;;;;;;;;;772723;180;919232;-68
2021/05/21 10:52:36;;;;;;;4.13;1.67;;;;;;;;;;774536;177;919393;-69
2021/05/21 10:55:02;;;;;;;2.28;1.37;;;;;;;;;;775052;177;919147;-68
2021/05/21 10:57:30;;;;;;;2.10;1.27;;;;;;;;;;776933;180;919425;-70
2021/05/21 10:59:54;;;;;;;2.83;1.37;;;;;;;;;;771234;177;919766;-70
2021/05/21 11:02:22;;;;;;;2.63;1.10;;;;;;;;;;757623;183;1012401;-68
2021/05/21 11:04:47;;;;;;;6.30;1.37;;;;;;;;;;773755;180;923880;-69
2021/05/21 11:07:30;;;;;;;2.10;1.20;;;;;;;;;;778389;179;919128;-68
2021/05/21 11:09:57;;;;;;;2.60;1.30;;;;;;;;;;775607;180;919138;-69
2021/05/21 11:12:22;;;;;;;5.60;1.70;;;;;;;;;;773943;179;918957;-70
2021/05/21 11:14:49;;;;;;;2.80;1.60;;;;;;;;;;775396;177;919595;-69
2021/05/21 11:17:15;;;;;;;2.13;1.27;;;;;;;;;;781206;180;914874;-68
2021/05/21 11:19:43;;;;;;;2.47;1.37;;;;;;;;;;776733;177;847814;-69
2021/05/21 11:22:15;;;;;;;4.10;1.23;;;;;;;;;;774524;180;919516;-68
2021/05/21 11:24:41;;;;;;;3.43;1.40;;;;;;;;;;778077;178;629124;-70
2021/05/21 11:27:07;;;;;;;3.77;1.47;;;;;;;;;;781036;180;619492;-70
2021/05/21 11:29:32;;;;;;;5.00;1.53;;;;;;;;;;777322;180;625917;-69
2021/05/21 11:31:58;;;;;;;3.40;1.40;;;;;;;;;;779186;177;625561;-68
2021/05/21 11:34:24;;;;;;;3.90;1.60;;;;;;;;;;781399;178;643966;-70
2021/05/21 11:36:50;;;;;;;3.30;1.10;;;;;;;;;;774321;178;915444;-69
2021/05/21 11:39:16;;;;;;;2.00;1.33;;;;;;;;;;771853;178;919496;-70
2021/05/21 11:41:44;;;;;;;3.10;1.20;;;;;;;;;;779768;178;934416;-69
2021/05/21 11:44:10;;;;;;;2.07;1.20;;;;;;;;;;772716;180;916412;-68
2021/05/21 11:46:36;;;;;;;3.30;1.67;;;;;;;;;;773793;179;916303;-68
2021/05/21 11:49:01;;;;;;;2.63;1.33;;;;;;;;;;774154;177;920252;-69
2021/05/21 11:51:27;;;;;;;3.47;1.20;;;;;;;;;;780796;178;918902;-68
2021/05/21 11:53:53;;;;;;;3.50;1.83;;;;;;;;;;770389;180;936501;-69
2021/05/21 11:56:26;;;;;;;4.13;1.50;;;;;;;;;;770056;177;919474;-68
2021/05/21 11:58:52;;;;;;;2.17;1.15;;;;;;;;;;779278;180;926701;-69
2021/05/21 12:01:17;;;;;;;2.60;1.50;;;;;;;;;;766393;180;919815;-71
2021/05/21 12:03:43;;;;;;;1.90;1.00;;;;;;;;;;771189;178;923007;-67
2021/05/21 12:06:09;;;;;;;5.87;1.63;;;;;;;;;;772184;180;916786;-69
2021/05/21 12:08:35;;;;;;;2.90;1.53;;;;;;;;;;777520;179;917523;-70
2021/05/21 12:11:01;;;;;;;1.90;1.20;;;;;;;;;;774604;177;917734;-70
2021/05/21 12:13:30;;;;;;;2.30;1.20;;;;;;;;;;773042;180;920150;-70
2021/05/21 12:16:01;;;;;;;3.70;1.50;;;;;;;;;;768742;180;918160;-69
2021/05/21 12:18:30;;;;;;;8.13;1.27;;;;;;;;;;775118;179;918791;-70
2021/05/21 12:20:56;;;;;;;3.37;1.60;;;;;;;;;;775037;177;920914;-69
2021/05/21 12:23:22;;;;;;;2.20;1.47;;;;;;;;;;776143;180;918253;-70
2021/05/21 12:25:48;;;;;;;3.53;1.20;;;;;;;;;;777753;180;919114;-69
2021/05/21 12:28:13;;;;;;;5.83;1.27;;;;;;;;;;770478;180;919416;-69
2021/05/21 12:30:39;;;;;;;3.50;1.50;;;;;;;;;;769473;180;919359;-70
2021/05/21 12:33:05;;;;;;;3.23;1.40;;;;;;;;;;778505;178;919388;-72
2021/05/21 12:35:35;;;;;;;3.50;1.83;;;;;;;;;;772403;180;920594;-70
2021/05/21 12:38:01;;;;;;;4.97;1.33;;;;;;;;;;769613;180;1133454;-69
2021/05/21 12:40:26;;;;;;;3.67;1.00;;;;;;;;;;777439;180;675604;-69
2021/05/21 12:42:54;;;;;;;3.20;1.70;;;;;;;;;;782596;180;616449;-70
2021/05/21 12:45:18;;;;;;;5.30;1.40;;;;;;;;;;772000;180;919118;-70
2021/05/21 12:47:44;;;;;;;11.20;1.40;;;;;;;;;;772286;180;921383;-70
2021/05/21 12:50:10;;;;;;;2.20;1.30;;;;;;;;;;778719;176;918243;-70
2021/05/21 12:52:36;;;;;;;4.00;1.10;;;;;;;;;;776105;180;919344;-70
2021/05/21 12:55:01;;;;;;;3.33;1.13;;;;;;;;;;768821;177;919624;-69
2021/05/21 12:57:27;;;;;;;3.13;1.30;;;;;;;;;;774570;180;919402;-69
2021/05/21 12:59:55;;;;;;;2.10;1.23;;;;;;;;;;776700;180;930807;-68
2021/05/21 13:02:22;;;;;;;2.10;1.20;;;;;;;;;;772591;180;917087;-70
2021/05/21 13:04:54;;;;;;;2.97;1.00;;;;;;;;;;773215;180;927992;-70
2021/05/21 13:07:20;;;;;;;5.20;1.53;;;;;;;;;;773010;180;920754;-69
2021/05/21 13:09:45;;;;;;;6.10;1.30;;;;;;;;;;766014;180;920168;-70
2021/05/21 13:12:11;;;;;;;2.37;1.20;;;;;;;;;;772536;180;918462;-70
2021/05/21 13:14:37;;;;;;;2.33;1.00;;;;;;;;;;780360;180;918810;-69
2021/05/21 13:17:04;;;;;;;4.27;1.30;;;;;;;;;;773964;180;918955;-70
2021/05/21 13:19:30;;;;;;;2.13;1.07;;;;;;;;;;776294;180;919466;-70
2021/05/21 13:21:56;;;;;;;2.23;1.10;;;;;;;;;;773041;180;944306;-69
2021/05/21 13:24:22;;;;;;;2.67;1.27;;;;;;;;;;776109;180;909303;-69
2021/05/21 13:26:48;;;;;;;2.63;1.07;;;;;;;;;;769713;180;952864;-68
2021/05/21 13:29:14;;;;;;;2.33;1.20;;;;;;;;;;773027;178;921451;-68
2021/05/21 13:31:40;;;;;;;4.13;1.70;;;;;;;;;;779695;178;919944;-69
2021/05/21 13:34:06;;;;;;;2.00;1.03;;;;;;;;;;769649;181;922099;-69
2021/05/21 13:36:32;;;;;;;1.70;1.00;;;;;;;;;;774847;177;911729;-69
2021/05/21 13:38:58;;;;;;;1.87;1.00;;;;;;;;;;779178;180;913108;-67
2021/05/21 13:41:23;;;;;;;2.45;1.20;;;;;;;;;;770141;180;916070;-68
2021/05/21 13:43:49;;;;;;;2.77;1.50;;;;;;;;;;774395;180;916667;-69
2021/05/21 13:46:15;;;;;;;2.47;1.50;;;;;;;;;;774052;180;915837;-69
2021/05/21 13:48:41;;;;;;;3.03;1.30;;;;;;;;;;778002;180;914892;-68
2021/05/21 13:51:07;;;;;;;5.30;1.47;;;;;;;;;;776073;179;915053;-68
2021/05/21 13:53:33;;;;;;;2.63;1.67;;;;;;;;;;769738;180;919159;-69
2021/05/21 13:55:58;;;;;;;2.60;2.10;;;;;;;;;;778859;180;918994;-69
2021/05/21 13:58:24;;;;;;;2.30;1.20;;;;;;;;;;774972;180;918041;-69
2021/05/21 14:00:50;;;;;;;3.07;1.27;;;;;;;;;;767875;178;918573;-66
2021/05/21 14:03:16;;;;;;;4.10;1.20;;;;;;;;;;778550;180;919259;-67
2021/05/21 14:05:42;;;;;;;2.50;1.73;;;;;;;;;;772697;180;919528;-70
2021/05/21 14:08:09;;;;;;;2.10;1.03;;;;;;;;;;771144;180;918709;-71
2021/05/21 14:10:34;;;;;;;2.10;1.10;;;;;;;;;;773598;180;919779;-68
2021/05/21 14:13:00;;;;;;;2.20;1.20;;;;;;;;;;771629;180;918860;-70
2021/05/21 14:15:26;;;;;;;3.73;1.20;;;;;;;;;;769483;180;919412;-69
2021/05/21 14:17:52;;;;;;;3.90;1.50;;;;;;;;;;772066;178;919564;-71